New Berlin, Wisconsin
Current Conditions -  °F | °C
As of 1:45 PM on Thursday 30 Oct 2014 (Local Time) from KUES Reporting Station
Broken Clouds Broken Clouds  
Wind Chill: 44°   Ceiling: 10000
Heat Index: 48°   Visibility: 10mi
Dew Point: 34°   Wind: 9mph
Humidity: 57%   Direction: 280°W
Pressure: 30.06"   Gusts: NA
Location:  42.98°N, 88.12°W
Report Text: KUES 301845Z 28008KT 10SM BKN100 09/01 A3006
Loading
Personal Weather Stations






























Interactive Weather Map
Tropical Storm Tracking
New forecast layout! Learn more

10-Day Weather Forecast

Advertisements
Track Severe Weather on mobile